createdAt,value
2019-01-20T00:01:42.537Z,19.23
2019-01-20T00:04:10.720Z,19.37
2019-01-20T00:06:38.947Z,18.90
2019-01-20T00:09:09.139Z,19.03
2019-01-20T00:11:37.349Z,18.50
2019-01-20T00:14:05.636Z,19.13
2019-01-20T00:16:33.853Z,17.77
2019-01-20T00:19:02.046Z,17.43
2019-01-20T00:21:30.232Z,18.37
2019-01-20T00:23:58.452Z,19.50
2019-01-20T00:26:26.665Z,18.00
2019-01-20T00:28:54.854Z,17.35
2019-01-20T00:31:23.041Z,16.85
2019-01-20T00:36:18.621Z,19.07
2019-01-20T00:38:46.808Z,18.60
2019-01-20T00:41:15.033Z,18.05
2019-01-20T00:43:43.245Z,17.73
2019-01-20T00:46:11.501Z,17.43
2019-01-20T00:48:39.709Z,18.30
2019-01-20T00:51:07.967Z,17.33
2019-01-20T00:53:36.184Z,17.77
2019-01-20T00:56:04.439Z,18.50
2019-01-20T00:58:32.628Z,18.00
2019-01-20T01:01:00.841Z,17.93
2019-01-20T01:03:30.053Z,17.80
2019-01-20T01:05:59.807Z,18.30
2019-01-20T01:08:28.028Z,20.13
2019-01-20T01:10:56.213Z,18.67
2019-01-20T01:13:24.438Z,19.40
2019-01-20T01:15:52.645Z,19.47
2019-01-20T01:18:20.885Z,16.73
2019-01-20T01:20:49.059Z,18.93
2019-01-20T01:23:17.281Z,17.87
2019-01-20T01:25:45.472Z,19.20
2019-01-20T01:28:13.696Z,18.30
2019-01-20T01:30:41.909Z,19.40
2019-01-20T01:33:10.121Z,18.97
2019-01-20T01:35:38.342Z,19.13
2019-01-20T01:38:06.520Z,19.63
2019-01-20T01:40:34.715Z,18.67
2019-01-20T01:43:02.898Z,19.87
2019-01-20T01:45:31.128Z,19.60
2019-01-20T01:47:59.306Z,20.23
2019-01-20T01:50:27.561Z,18.63
2019-01-20T01:52:55.747Z,19.70
2019-01-20T01:55:23.929Z,20.97
2019-01-20T01:57:52.122Z,18.53
2019-01-20T02:00:21.277Z,19.83
2019-01-20T02:02:49.484Z,19.53
2019-01-20T02:05:18.040Z,19.33
2019-01-20T02:07:46.251Z,19.70
2019-01-20T02:10:15.980Z,19.87
2019-01-20T02:12:44.222Z,20.63
2019-01-20T02:15:13.571Z,20.70
2019-01-20T02:17:41.755Z,20.37
2019-01-20T02:20:11.536Z,19.60
2019-01-20T02:22:42.731Z,21.97
2019-01-20T02:25:10.957Z,19.50
2019-01-20T02:27:39.178Z,18.90
2019-01-20T02:30:08.908Z,19.30
2019-01-20T02:32:37.369Z,18.67
2019-01-20T02:35:05.861Z,20.40
2019-01-20T02:37:34.044Z,19.50
2019-01-20T02:40:02.241Z,19.73
2019-01-20T02:42:31.953Z,19.40
2019-01-20T02:45:00.441Z,20.53
2019-01-20T02:47:28.658Z,19.50
2019-01-20T02:49:56.877Z,20.27
2019-01-20T02:52:25.094Z,20.33
2019-01-20T02:54:53.380Z,17.37
2019-01-20T02:57:21.596Z,20.70
2019-01-20T02:59:49.810Z,20.43
2019-01-20T03:02:18.029Z,20.63
2019-01-20T03:04:46.203Z,18.40
2019-01-20T03:07:14.400Z,20.03
2019-01-20T03:09:42.623Z,20.00
2019-01-20T03:12:10.812Z,20.50
2019-01-20T03:14:39.004Z,20.53
2019-01-20T03:17:07.225Z,19.80
2019-01-20T03:19:35.441Z,20.40
2019-01-20T03:22:03.723Z,20.40
2019-01-20T03:24:31.940Z,20.37
2019-01-20T03:27:00.154Z,21.60
2019-01-20T03:29:28.453Z,22.10
2019-01-20T03:31:56.633Z,21.87
2019-01-20T03:34:24.872Z,19.53
2019-01-20T03:36:53.089Z,21.30
2019-01-20T03:39:21.306Z,21.03
2019-01-20T03:41:49.594Z,20.33
2019-01-20T03:44:17.793Z,19.93
2019-01-20T03:46:45.979Z,20.60
2019-01-20T03:49:14.186Z,20.80
2019-01-20T03:51:42.397Z,19.40
2019-01-20T03:54:10.685Z,20.07
2019-01-20T03:56:38.866Z,19.83
2019-01-20T03:59:07.049Z,21.33
2019-01-20T04:01:35.280Z,20.80
2019-01-20T04:04:03.660Z,22.00
2019-01-20T04:06:31.856Z,19.40
2019-01-20T04:09:00.117Z,19.90
2019-01-20T04:11:28.326Z,20.87
2019-01-20T04:13:56.537Z,19.90
2019-01-20T04:16:24.730Z,20.97
2019-01-20T04:18:52.941Z,21.27
2019-01-20T04:21:21.148Z,19.27
2019-01-20T04:23:50.224Z,21.17
2019-01-20T04:26:18.599Z,22.30
2019-01-20T04:28:46.822Z,19.80
2019-01-20T04:31:15.042Z,21.07
2019-01-20T04:33:43.235Z,21.80
2019-01-20T04:36:11.450Z,22.40
2019-01-20T04:38:39.641Z,21.23
2019-01-20T04:41:07.857Z,21.60
2019-01-20T04:43:36.128Z,22.03
2019-01-20T04:46:04.480Z,22.23
2019-01-20T04:48:32.667Z,21.40
2019-01-20T04:51:00.867Z,21.70
2019-01-20T04:53:29.320Z,22.93
2019-01-20T04:55:57.548Z,21.43
2019-01-20T04:58:25.825Z,21.57
2019-01-20T05:00:54.024Z,21.83
2019-01-20T05:03:22.253Z,21.77
2019-01-20T05:05:50.478Z,21.80
2019-01-20T05:08:18.670Z,22.80
2019-01-20T05:10:46.885Z,22.30
2019-01-20T05:13:15.139Z,22.60
2019-01-20T05:15:43.316Z,23.70
2019-01-20T05:18:11.535Z,23.00
2019-01-20T05:20:39.756Z,21.30
2019-01-20T05:23:07.972Z,23.00
2019-01-20T05:30:30.832Z,21.90
2019-01-20T05:32:59.060Z,21.47
2019-01-20T05:35:27.296Z,21.95
2019-01-20T05:52:39.568Z,22.10
2019-01-20T06:04:57.235Z,25.77
2019-01-20T06:22:09.596Z,22.00
2019-01-20T06:46:45.870Z,23.10
2019-01-20T06:54:08.787Z,23.20
2019-01-20T06:56:36.968Z,22.40
2019-01-20T06:59:05.201Z,24.50
2019-01-20T07:01:33.496Z,22.80
2019-01-20T07:04:01.681Z,24.70
2019-01-20T07:06:29.900Z,24.17
2019-01-20T07:08:58.139Z,23.57
2019-01-20T07:11:26.360Z,23.47
2019-01-20T07:13:54.551Z,22.67
2019-01-20T07:16:22.752Z,23.17
2019-01-20T07:18:50.978Z,24.47
2019-01-20T07:21:19.173Z,24.03
2019-01-20T07:23:47.389Z,24.23
2019-01-20T07:26:15.577Z,22.03
2019-01-20T07:28:43.813Z,24.60
2019-01-20T07:31:12.008Z,25.37
2019-01-20T07:33:41.022Z,24.20
2019-01-20T07:36:09.213Z,25.20
2019-01-20T07:38:37.404Z,24.10
2019-01-20T07:41:05.624Z,25.57
2019-01-20T07:43:33.873Z,25.50
2019-01-20T07:46:02.128Z,23.77
2019-01-20T07:48:30.307Z,24.07
2019-01-20T07:50:58.545Z,23.00
2019-01-20T07:53:26.737Z,23.20
2019-01-20T07:55:54.928Z,25.70
2019-01-20T07:58:23.149Z,24.67
2019-01-20T08:00:51.336Z,25.77
2019-01-20T08:03:19.567Z,24.43
2019-01-20T08:05:47.780Z,25.90
2019-01-20T08:08:15.989Z,26.23
2019-01-20T08:10:44.180Z,24.90
2019-01-20T08:13:14.037Z,24.30
2019-01-20T08:15:43.149Z,24.67
2019-01-20T08:18:11.361Z,25.10
2019-01-20T08:20:39.552Z,26.17
2019-01-20T08:23:07.770Z,26.47
2019-01-20T08:25:35.955Z,24.77
2019-01-20T08:28:04.248Z,26.93
2019-01-20T08:30:32.494Z,26.13
2019-01-20T08:33:00.672Z,26.33
2019-01-20T08:35:28.856Z,25.83
2019-01-20T08:37:57.047Z,26.87
2019-01-20T08:40:26.428Z,27.17
2019-01-20T08:42:54.723Z,24.83
2019-01-20T08:45:27.474Z,26.63
2019-01-20T09:02:40.581Z,31.33
2019-01-20T09:05:10.263Z,28.17
2019-01-20T09:07:38.441Z,28.47
2019-01-20T09:10:10.973Z,28.60
2019-01-20T09:12:39.825Z,29.60
2019-01-20T09:15:08.218Z,28.17
2019-01-20T09:17:36.441Z,28.93
2019-01-20T09:20:06.269Z,31.23
2019-01-20T09:22:34.477Z,30.00
2019-01-20T09:25:02.668Z,29.47
2019-01-20T09:27:30.856Z,29.60
2019-01-20T09:29:59.072Z,30.23
2019-01-20T09:32:27.256Z,31.20
2019-01-20T09:34:55.477Z,32.00
2019-01-20T09:37:23.694Z,31.10
2019-01-20T09:39:51.876Z,31.50
2019-01-20T09:42:20.068Z,32.40
2019-01-20T09:44:48.293Z,30.97
2019-01-20T09:47:16.480Z,31.40
2019-01-20T09:49:44.676Z,31.30
2019-01-20T09:52:12.884Z,33.40
2019-01-20T09:54:41.170Z,33.93
2019-01-20T09:57:09.383Z,32.93
2019-01-20T09:59:37.602Z,33.03
2019-01-20T10:02:05.847Z,33.47
2019-01-20T10:04:34.078Z,34.20
2019-01-20T10:07:02.293Z,31.23
2019-01-20T10:09:30.521Z,32.50
2019-01-20T10:19:21.244Z,32.90
2019-01-20T10:21:49.468Z,32.67
2019-01-20T10:24:17.701Z,32.13
2019-01-20T10:26:45.884Z,35.50
2019-01-20T10:29:14.093Z,33.43
2019-01-20T10:31:42.296Z,32.23
2019-01-20T10:34:10.512Z,33.57
2019-01-20T10:36:38.748Z,35.93
2019-01-20T10:39:09.840Z,33.17
2019-01-20T10:41:38.073Z,35.10
2019-01-20T10:44:06.252Z,34.27
2019-01-20T10:46:34.481Z,35.43
2019-01-20T10:49:02.693Z,33.10
2019-01-20T10:51:30.884Z,33.57
2019-01-20T10:53:59.114Z,34.53
2019-01-20T10:56:27.307Z,34.00
2019-01-20T10:58:55.495Z,33.90
2019-01-20T11:01:23.717Z,32.87
2019-01-20T11:03:52.114Z,33.43
2019-01-20T11:06:20.333Z,33.13
2019-01-20T11:08:48.511Z,32.10
2019-01-20T11:11:16.749Z,31.77
2019-01-20T11:13:44.940Z,32.97
2019-01-20T11:16:13.204Z,32.40
2019-01-20T11:18:41.453Z,33.50
2019-01-20T11:21:09.632Z,32.07
2019-01-20T11:23:37.901Z,33.90
2019-01-20T11:26:06.091Z,31.83
2019-01-20T11:28:34.288Z,31.70
2019-01-20T11:31:02.480Z,31.00
2019-01-20T11:33:30.670Z,29.30
2019-01-20T11:35:58.860Z,29.27
2019-01-20T11:38:27.081Z,28.20
2019-01-20T11:40:55.273Z,27.83
2019-01-20T11:43:23.485Z,27.37
2019-01-20T11:45:51.720Z,28.40
2019-01-20T11:48:19.937Z,28.43
2019-01-20T11:50:48.110Z,27.93
2019-01-20T11:53:16.300Z,24.43
2019-01-20T11:55:44.489Z,27.00
2019-01-20T11:58:12.721Z,24.73
2019-01-20T12:00:40.931Z,25.80
2019-01-20T12:03:09.247Z,27.60
2019-01-20T12:05:37.491Z,27.80
2019-01-20T12:13:02.051Z,26.50
2019-01-20T15:03:05.601Z,20.90
2019-01-20T15:30:08.875Z,17.40
2019-01-20T15:32:37.105Z,18.60
2019-01-20T15:35:05.689Z,17.03
2019-01-20T15:37:33.905Z,17.05
2019-01-20T15:40:02.084Z,16.90
2019-01-20T15:42:30.324Z,17.17
2019-01-20T15:44:58.601Z,16.90
2019-01-20T15:47:26.788Z,16.47
2019-01-20T15:49:55.987Z,17.50
2019-01-20T15:52:24.183Z,17.80
2019-01-20T15:54:52.375Z,18.00
2019-01-20T15:57:20.596Z,17.50
2019-01-20T15:59:48.798Z,17.70
2019-01-20T16:02:17.013Z,16.40
2019-01-20T16:04:45.205Z,16.23
2019-01-20T16:07:13.429Z,16.87
2019-01-20T16:09:41.719Z,16.70
2019-01-20T16:12:09.904Z,17.27
2019-01-20T16:14:38.104Z,19.17
2019-01-20T16:17:06.292Z,17.97
2019-01-20T16:19:34.522Z,17.77
2019-01-20T16:22:02.722Z,18.00
2019-01-20T16:24:30.929Z,17.70
2019-01-20T16:27:01.004Z,18.87
2019-01-20T16:29:29.157Z,17.93
2019-01-20T16:31:57.377Z,16.47
2019-01-20T16:34:25.572Z,18.73
2019-01-20T16:36:53.785Z,17.20
2019-01-20T16:39:21.999Z,16.50
2019-01-20T16:41:50.225Z,17.10
2019-01-20T16:44:18.444Z,16.60
2019-01-20T16:46:46.676Z,17.10
2019-01-20T16:49:14.860Z,16.40
2019-01-20T16:51:43.103Z,18.23
2019-01-20T16:54:11.292Z,18.40
2019-01-20T16:56:39.481Z,17.10
2019-01-20T16:59:07.703Z,17.35
2019-01-20T17:01:35.892Z,16.27
2019-01-20T17:04:04.082Z,17.10
2019-01-20T17:06:32.280Z,17.90
2019-01-20T17:09:00.551Z,17.33
2019-01-20T17:11:28.728Z,18.40
2019-01-20T17:13:56.945Z,17.70
2019-01-20T17:16:25.143Z,17.30
2019-01-20T17:18:53.361Z,19.17
2019-01-20T17:21:21.560Z,17.83
2019-01-20T17:23:49.781Z,17.10
2019-01-20T17:26:17.975Z,17.77
2019-01-20T17:28:46.163Z,16.97
2019-01-20T17:31:14.407Z,16.07
2019-01-20T17:33:42.584Z,16.73
2019-01-20T17:36:10.776Z,16.97
2019-01-20T17:38:38.964Z,16.30
2019-01-20T17:41:07.148Z,17.50
2019-01-20T17:43:35.413Z,19.07
2019-01-20T17:46:04.166Z,19.10
2019-01-20T17:48:32.356Z,18.23
2019-01-20T17:51:00.552Z,20.20
2019-01-20T17:53:28.738Z,18.50
2019-01-20T17:55:56.938Z,19.23
2019-01-20T17:58:25.121Z,17.50
2019-01-20T18:00:54.996Z,17.40
2019-01-20T18:03:23.205Z,18.20
2019-01-20T18:05:51.424Z,18.80
2019-01-20T18:08:19.672Z,17.60
2019-01-20T18:10:47.890Z,17.37
2019-01-20T18:13:16.105Z,18.60
2019-01-20T18:15:44.313Z,18.30
2019-01-20T18:18:12.522Z,17.80
2019-01-20T18:20:40.736Z,18.27
2019-01-20T18:23:08.929Z,18.20
2019-01-20T18:25:37.155Z,19.30
2019-01-20T18:28:05.445Z,18.00
2019-01-20T18:30:33.717Z,17.13
2019-01-20T18:33:01.930Z,18.57
2019-01-20T18:35:30.153Z,18.37
2019-01-20T18:37:58.335Z,17.40
2019-01-20T18:40:27.129Z,17.37
2019-01-20T18:42:55.448Z,17.67
2019-01-20T18:45:25.086Z,18.33
2019-01-20T18:47:53.315Z,17.60
2019-01-20T18:50:22.868Z,17.30
2019-01-20T18:52:51.109Z,16.93
2019-01-20T18:55:19.980Z,16.77
2019-01-20T18:57:48.352Z,18.13
2019-01-20T19:00:27.459Z,18.70
2019-01-20T19:02:55.752Z,17.80
2019-01-20T19:05:23.948Z,17.97
2019-01-20T19:07:55.516Z,20.67
2019-01-20T19:10:22.431Z,19.33
2019-01-20T19:12:50.648Z,17.97
2019-01-20T19:15:19.742Z,18.20
2019-01-20T19:17:47.927Z,18.57
2019-01-20T19:20:20.471Z,17.73
2019-01-20T19:22:49.369Z,18.57
2019-01-20T19:25:17.661Z,18.63
2019-01-20T19:27:45.912Z,17.73
2019-01-20T19:30:21.572Z,20.47
2019-01-20T19:32:49.790Z,19.10
2019-01-20T19:35:18.081Z,18.93
2019-01-20T19:37:46.355Z,19.40
2019-01-20T19:40:15.011Z,18.67
2019-01-20T19:42:43.246Z,18.90
2019-01-20T19:45:18.219Z,17.70
2019-01-20T19:47:46.420Z,19.20
2019-01-20T19:50:15.471Z,18.03
2019-01-20T19:52:43.724Z,18.20
2019-01-20T19:55:13.321Z,19.53
2019-01-20T19:57:41.530Z,18.80
2019-01-20T20:00:11.421Z,18.40
2019-01-20T20:02:40.240Z,18.00
2019-01-20T20:05:10.221Z,17.77
2019-01-20T20:07:38.449Z,20.07
2019-01-20T20:10:13.952Z,18.10
2019-01-20T20:12:42.148Z,19.60
2019-01-20T20:15:11.841Z,17.13
2019-01-20T20:17:40.032Z,18.30
2019-01-20T20:20:09.788Z,18.53
2019-01-20T20:22:49.652Z,19.33
2019-01-20T20:25:21.487Z,16.80
2019-01-20T20:27:49.775Z,17.00
2019-01-20T20:30:19.527Z,15.93
2019-01-20T20:32:47.712Z,16.90
2019-01-20T20:35:15.909Z,18.40
2019-01-20T20:37:44.093Z,17.80
2019-01-20T20:40:16.249Z,16.83
2019-01-20T20:42:44.466Z,16.03
2019-01-20T20:45:16.772Z,17.27
2019-01-20T20:47:44.989Z,17.30
2019-01-20T20:50:14.187Z,16.67
2019-01-20T20:52:46.171Z,16.37
2019-01-20T20:55:12.525Z,17.57
2019-01-20T20:57:40.708Z,16.60
2019-01-20T21:00:13.357Z,17.00
2019-01-20T21:02:41.604Z,17.87
2019-01-20T21:05:09.829Z,17.23
2019-01-20T21:07:38.050Z,17.17
2019-01-20T21:10:10.550Z,16.60
2019-01-20T21:12:38.776Z,17.10
2019-01-20T21:15:08.488Z,17.13
2019-01-20T21:17:36.692Z,17.27
2019-01-20T21:20:06.449Z,17.17
2019-01-20T21:22:34.647Z,16.53
2019-01-20T21:25:02.873Z,16.97
2019-01-20T21:27:31.073Z,15.67
2019-01-20T21:29:59.248Z,18.00
2019-01-20T21:32:27.473Z,17.17
2019-01-20T21:34:55.701Z,18.03
2019-01-20T21:37:23.904Z,17.27
2019-01-20T21:39:52.079Z,16.30
2019-01-20T21:42:20.357Z,14.93
2019-01-20T21:44:48.536Z,16.03
2019-01-20T21:47:16.809Z,15.80
2019-01-20T21:49:45.028Z,15.70
2019-01-20T21:52:13.220Z,16.75
2019-01-20T21:54:41.437Z,15.50
2019-01-20T21:57:09.661Z,16.90
2019-01-20T21:59:37.839Z,17.70
2019-01-20T22:02:06.046Z,16.50
2019-01-20T22:04:34.232Z,15.90
2019-01-20T22:07:02.429Z,14.40
2019-01-20T22:09:30.662Z,14.90
2019-01-20T22:11:58.892Z,16.97
2019-01-20T22:14:27.083Z,14.63
2019-01-20T22:16:55.274Z,15.10
2019-01-20T22:19:23.468Z,15.03
2019-01-20T22:21:51.696Z,15.80
2019-01-20T22:24:19.880Z,15.47
2019-01-20T22:26:48.076Z,16.73
2019-01-20T22:29:16.292Z,15.83
2019-01-20T22:31:44.518Z,16.30
2019-01-20T22:34:12.775Z,16.40
2019-01-20T22:36:41.033Z,16.20
2019-01-20T22:39:09.244Z,15.10
2019-01-20T22:41:37.421Z,15.87
2019-01-20T22:44:05.640Z,16.37
2019-01-20T22:46:33.847Z,16.10
2019-01-20T22:49:02.040Z,16.23
2019-01-20T22:51:30.259Z,14.90
2019-01-20T22:53:58.452Z,14.60
2019-01-20T22:56:26.640Z,16.33
2019-01-20T22:58:54.839Z,16.57
2019-01-20T23:01:23.221Z,13.57
2019-01-20T23:03:51.421Z,15.00
2019-01-20T23:06:19.645Z,16.30
2019-01-20T23:08:47.921Z,14.13
2019-01-20T23:11:16.126Z,14.10
2019-01-20T23:13:44.343Z,15.00
2019-01-20T23:16:12.533Z,15.97
2019-01-20T23:18:40.753Z,14.87
2019-01-20T23:21:08.948Z,15.63
2019-01-20T23:23:37.136Z,15.33
2019-01-20T23:26:05.336Z,16.20
2019-01-20T23:28:33.547Z,15.90
2019-01-20T23:31:01.814Z,15.77
2019-01-20T23:33:30.042Z,18.13
2019-01-20T23:35:58.255Z,17.27
2019-01-20T23:38:26.496Z,17.70
2019-01-20T23:40:54.717Z,16.77
2019-01-20T23:43:22.937Z,16.73
2019-01-20T23:45:51.120Z,16.20
2019-01-20T23:48:19.351Z,17.80
2019-01-20T23:50:47.618Z,18.97
2019-01-20T23:53:15.849Z,16.80
2019-01-20T23:55:44.062Z,17.00
2019-01-20T23:58:12.320Z,17.53
